Time;durP1;ratioP1;P1;durP2;ratioP2;P2;SDS_P1;SDS_P2;PMS_P1;PMS_P2;Temp;Humidity;BMP_temperature;BMP_pressure;BME280_temperature;BME280_humidity;BME280_pressure;Samples;Min_cycle;Max_cycle;Signal;HPM_P1;HPM_P2
2024/02/17 00:00:11;;;;;;;12.87;7.33;;;;;;;-3.73;100.00;100885.09;5014896;28;20072;-68
2024/02/17 00:02:36;;;;;;;14.13;7.30;;;;;;;-3.73;100.00;100882.50;4998664;28;20060;-68
2024/02/17 00:05:02;;;;;;;15.63;7.33;;;;;;;-3.69;100.00;100876.31;5015220;28;20045;-68
2024/02/17 00:07:28;;;;;;;15.87;7.73;;;;;;;-3.72;100.00;100878.16;4998526;28;20037;-68
2024/02/17 00:09:54;;;;;;;15.30;7.67;;;;;;;-3.78;100.00;100879.16;5031894;28;20057;-67
2024/02/17 00:12:21;;;;;;;15.37;8.10;;;;;;;-3.74;100.00;100869.56;5029315;28;20129;-68
2024/02/17 00:14:47;;;;;;;18.33;8.43;;;;;;;-3.85;100.00;100871.56;5050103;28;20072;-68
2024/02/17 00:17:14;;;;;;;11.90;7.47;;;;;;;-3.85;100.00;100874.16;5050457;28;20079;-68
2024/02/17 00:19:40;;;;;;;15.50;8.20;;;;;;;-3.85;100.00;100872.44;5017962;28;20103;-67
2024/02/17 00:22:07;;;;;;;15.50;7.90;;;;;;;-3.88;100.00;100869.91;5050721;28;20068;-70
2024/02/17 00:24:33;;;;;;;15.00;8.30;;;;;;;-3.97;100.00;100848.53;5050954;28;20067;-67
2024/02/17 00:26:59;;;;;;;13.93;7.60;;;;;;;-3.93;100.00;100869.16;5017992;28;20053;-68
2024/02/17 00:29:25;;;;;;;11.90;7.23;;;;;;;-3.91;100.00;100867.41;5051811;28;20436;-67
2024/02/17 00:31:52;;;;;;;13.30;7.37;;;;;;;-3.90;100.00;100863.03;5052725;28;20052;-67
2024/02/17 00:34:19;;;;;;;15.03;7.50;;;;;;;-3.89;100.00;100857.81;5036517;28;20047;-67
2024/02/17 00:36:45;;;;;;;11.77;7.03;;;;;;;-3.91;100.00;100848.38;5036123;28;20519;-68
2024/02/17 00:39:11;;;;;;;12.90;6.90;;;;;;;-3.87;100.00;100850.84;5052331;28;20074;-67
2024/02/17 00:41:38;;;;;;;12.97;7.20;;;;;;;-3.84;100.00;100850.78;5001178;28;20101;-68
2024/02/17 00:44:04;;;;;;;13.53;7.40;;;;;;;-3.83;100.00;100842.09;5033805;28;20040;-67
2024/02/17 00:46:31;;;;;;;12.33;7.60;;;;;;;-3.80;100.00;100854.97;5017127;28;20497;-68
2024/02/17 00:48:57;;;;;;;14.00;7.87;;;;;;;-3.83;100.00;100834.28;5014980;28;20049;-68
2024/02/17 00:51:24;;;;;;;13.23;7.20;;;;;;;-3.81;100.00;100824.75;4999168;28;20406;-67
2024/02/17 00:53:50;;;;;;;14.73;7.63;;;;;;;-3.78;100.00;100835.03;5015489;28;20037;-68
2024/02/17 00:56:21;;;;;;;12.67;7.17;;;;;;;-3.77;100.00;100828.94;5018007;28;20041;-67
2024/02/17 00:58:47;;;;;;;10.80;6.15;;;;;;;-3.72;100.00;100831.44;5017978;28;20044;-67
2024/02/17 01:01:13;;;;;;;14.97;8.20;;;;;;;-3.76;100.00;100840.19;5001034;28;20241;-67
2024/02/17 01:03:40;;;;;;;14.40;7.50;;;;;;;-3.77;100.00;100839.31;5050645;28;20095;-70
2024/02/17 01:06:09;;;;;;;14.67;8.33;;;;;;;-3.78;100.00;100818.59;5034079;28;20127;-67
2024/02/17 01:08:35;;;;;;;13.17;6.70;;;;;;;-3.74;100.00;100828.84;4984687;28;20106;-67
2024/02/17 01:11:01;;;;;;;12.80;7.13;;;;;;;-3.74;100.00;100822.84;5017265;28;20056;-67
2024/02/17 01:13:27;;;;;;;15.27;8.20;;;;;;;-3.79;100.00;100815.19;5001358;28;20037;-67
2024/02/17 01:15:54;;;;;;;16.87;7.47;;;;;;;-3.73;100.00;100824.53;5001352;28;20068;-67
2024/02/17 01:18:19;;;;;;;13.27;7.70;;;;;;;-3.77;100.00;100807.34;5033794;28;20045;-67
2024/02/17 01:20:46;;;;;;;13.70;7.73;;;;;;;-3.80;100.00;100794.47;5017373;28;20056;-68
2024/02/17 01:23:12;;;;;;;13.57;6.90;;;;;;;-3.72;100.00;100813.28;5017344;28;20430;-67
2024/02/17 01:25:38;;;;;;;15.90;7.93;;;;;;;-3.70;100.00;100811.47;5001032;28;20099;-67
2024/02/17 01:28:05;;;;;;;13.73;7.30;;;;;;;-3.68;100.00;100802.78;5034038;28;20402;-67
2024/02/17 01:30:31;;;;;;;12.43;6.70;;;;;;;-3.70;100.00;100799.34;5033600;28;20463;-68
2024/02/17 01:32:57;;;;;;;14.83;7.53;;;;;;;-3.72;100.00;100811.50;5050197;28;20214;-67
2024/02/17 01:35:24;;;;;;;13.73;7.37;;;;;;;-3.74;100.00;100813.28;5017217;28;20048;-68
2024/02/17 01:37:51;;;;;;;14.00;7.50;;;;;;;-3.70;100.00;100801.09;5016900;28;20052;-68
2024/02/17 01:40:18;;;;;;;12.90;7.80;;;;;;;-3.70;100.00;100809.75;5033145;28;20041;-67
2024/02/17 01:42:45;;;;;;;15.77;7.97;;;;;;;-3.74;100.00;100797.72;5050313;28;20061;-68
2024/02/17 01:45:10;;;;;;;13.33;7.53;;;;;;;-3.73;100.00;100799.44;5017477;28;20526;-70
2024/02/17 01:47:37;;;;;;;14.53;7.93;;;;;;;-3.68;100.00;100799.31;5017521;28;20080;-69
2024/02/17 01:50:04;;;;;;;14.60;7.73;;;;;;;-3.69;100.00;100782.88;5017226;28;20103;-67
2024/02/17 01:52:34;;;;;;;13.97;7.63;;;;;;;-3.68;100.00;100776.81;5033450;28;20135;-67
2024/02/17 01:55:02;;;;;;;14.77;7.82;;;;;;;-3.65;100.00;100792.31;5017399;28;20147;-67
2024/02/17 01:57:28;;;;;;;16.27;8.57;;;;;;;-3.71;100.00;100787.28;5020091;28;20049;-67
2024/02/17 01:59:55;;;;;;;14.37;7.77;;;;;;;-3.68;100.00;100792.38;5002863;28;20147;-67
2024/02/17 02:02:21;;;;;;;15.10;7.97;;;;;;;-3.70;100.00;100781.19;5052979;28;20138;-67
2024/02/17 02:04:50;;;;;;;14.73;7.63;;;;;;;-3.64;100.00;100775.81;5020029;28;20530;-67
2024/02/17 02:07:16;;;;;;;15.57;8.20;;;;;;;-3.74;100.00;100776.94;5019849;28;20074;-67
2024/02/17 02:09:44;;;;;;;16.60;8.40;;;;;;;-3.70;100.00;100775.13;4987613;28;20144;-69
2024/02/17 02:12:10;;;;;;;15.63;8.40;;;;;;;-3.74;100.00;100781.31;4987468;28;20099;-67
2024/02/17 02:14:36;;;;;;;17.00;8.30;;;;;;;-3.76;100.00;100778.75;5035478;28;20056;-67
2024/02/17 02:17:05;;;;;;;16.40;7.97;;;;;;;-3.68;100.00;100773.34;5035452;28;20155;-67
2024/02/17 02:19:32;;;;;;;15.53;7.63;;;;;;;-3.69;100.00;100780.28;5018981;28;20483;-67
2024/02/17 02:21:57;;;;;;;18.50;8.90;;;;;;;-3.73;100.00;100776.09;4986714;28;20079;-67
2024/02/17 02:24:25;;;;;;;16.03;8.47;;;;;;;-3.69;100.00;100772.50;5035195;28;20061;-67
2024/02/17 02:26:51;;;;;;;16.07;8.00;;;;;;;-3.64;100.00;100767.19;4986851;28;20053;-67
2024/02/17 02:29:18;;;;;;;16.70;8.60;;;;;;;-3.62;100.00;100774.06;5037743;28;20122;-67
2024/02/17 02:31:46;;;;;;;13.30;7.90;;;;;;;-3.61;100.00;100770.53;5034611;28;20053;-67
2024/02/17 02:34:13;;;;;;;14.90;7.63;;;;;;;-3.53;100.00;100762.53;5036763;28;20056;-67
2024/02/17 02:36:41;;;;;;;14.63;8.17;;;;;;;-3.59;100.00;100760.97;5003887;28;20048;-67
2024/02/17 02:39:07;;;;;;;15.03;8.10;;;;;;;-3.56;100.00;100780.81;5036402;28;20041;-67
2024/02/17 02:41:33;;;;;;;16.73;8.40;;;;;;;-3.61;100.00;100769.69;5019671;28;20106;-68
2024/02/17 02:43:58;;;;;;;14.17;7.93;;;;;;;-3.60;100.00;100776.59;5019553;28;20049;-67
2024/02/17 02:46:25;;;;;;;17.70;8.17;;;;;;;-3.63;100.00;100780.13;5036424;28;20118;-67
2024/02/17 02:48:53;;;;;;;12.90;7.40;;;;;;;-3.59;100.00;100770.50;4995232;28;20555;-67
2024/02/17 02:51:20;;;;;;;15.67;8.63;;;;;;;-3.60;100.00;100764.44;4947785;28;20184;-68
2024/02/17 02:53:46;;;;;;;14.37;8.43;;;;;;;-3.56;100.00;100773.88;4995516;28;20409;-68
2024/02/17 02:56:13;;;;;;;13.97;7.50;;;;;;;-3.52;100.00;100766.81;4979849;28;20049;-68
2024/02/17 02:58:39;;;;;;;15.13;7.87;;;;;;;-3.46;100.00;100769.28;4995534;28;20046;-67
2024/02/17 03:01:05;;;;;;;15.70;8.07;;;;;;;-3.44;100.00;100769.25;4956752;28;20054;-67
2024/02/17 03:03:31;;;;;;;13.23;7.90;;;;;;;-3.44;100.00;100764.88;4988583;28;20069;-67
2024/02/17 03:05:57;;;;;;;14.90;8.33;;;;;;;-3.43;100.00;100756.22;4989009;28;20058;-67
2024/02/17 03:08:23;;;;;;;14.47;7.30;;;;;;;-3.39;100.00;100763.00;4956321;28;20113;-67
2024/02/17 03:10:50;;;;;;;15.37;8.07;;;;;;;-3.41;100.00;100758.75;4940458;28;20054;-68
2024/02/17 03:13:16;;;;;;;15.83;8.30;;;;;;;-3.43;100.00;100747.56;4988288;28;20055;-70
2024/02/17 03:15:42;;;;;;;14.70;7.90;;;;;;;-3.37;100.00;100757.75;4954708;28;20141;-67
2024/02/17 03:18:08;;;;;;;15.47;8.40;;;;;;;-3.37;100.00;100744.78;4971753;28;20058;-67
2024/02/17 03:20:33;;;;;;;15.53;8.03;;;;;;;-3.35;100.00;100748.19;4989791;28;20046;-68
2024/02/17 03:22:59;;;;;;;13.10;7.17;;;;;;;-3.43;100.00;100739.75;4973271;28;20050;-67
2024/02/17 03:25:26;;;;;;;15.97;8.40;;;;;;;-3.34;100.00;100749.88;4957537;28;20061;-68
2024/02/17 03:27:51;;;;;;;15.50;8.53;;;;;;;-3.33;100.00;100733.41;4957374;28;20084;-68
2024/02/17 03:30:18;;;;;;;20.17;9.20;;;;;;;-3.33;100.00;100736.84;4973497;28;20639;-70
2024/02/17 03:32:44;;;;;;;16.43;8.63;;;;;;;-3.32;100.00;100740.31;5021314;28;20053;-67
2024/02/17 03:35:10;;;;;;;18.17;8.57;;;;;;;-3.30;100.00;100736.75;5034626;28;20566;-67
2024/02/17 03:37:35;;;;;;;17.10;8.40;;;;;;;-3.28;100.00;100718.53;5035185;28;20043;-67
2024/02/17 03:40:06;;;;;;;17.40;8.77;;;;;;;-3.23;100.00;100724.44;5035002;28;20131;-67
2024/02/17 03:42:33;;;;;;;16.27;8.65;;;;;;;-3.19;100.00;100719.13;5052503;28;20041;-67
2024/02/17 03:45:00;;;;;;;15.90;8.40;;;;;;;-3.13;100.00;100726.72;5051863;28;20123;-68
2024/02/17 03:47:26;;;;;;;14.23;8.40;;;;;;;-3.20;100.00;100711.38;4997852;28;20091;-68
2024/02/17 03:49:52;;;;;;;14.80;8.10;;;;;;;-3.15;100.00;100710.31;5030650;28;20080;-68
2024/02/17 03:52:18;;;;;;;14.30;8.30;;;;;;;-3.13;100.00;100710.28;4998240;28;20074;-70
2024/02/17 03:54:45;;;;;;;17.50;8.43;;;;;;;-3.13;100.00;100710.28;4995036;28;20061;-67
2024/02/17 03:57:11;;;;;;;17.70;9.33;;;;;;;-3.15;100.00;100712.91;4994452;28;20595;-67
2024/02/17 03:59:36;;;;;;;14.57;8.27;;;;;;;-3.21;100.00;100687.13;4994355;28;20115;-67
2024/02/17 04:02:02;;;;;;;16.87;9.00;;;;;;;-3.15;100.00;100686.13;5010229;28;20064;-65
2024/02/17 04:04:28;;;;;;;16.03;8.40;;;;;;;-3.12;100.00;100697.22;4977733;28;20493;-66
2024/02/17 04:06:55;;;;;;;19.17;9.00;;;;;;;-3.12;100.00;100699.84;4971477;28;20487;-66
2024/02/17 04:09:21;;;;;;;16.10;8.40;;;;;;;-3.15;100.00;100686.13;4955367;28;20066;-65
2024/02/17 04:11:47;;;;;;;17.03;9.70;;;;;;;-3.16;100.00;100680.06;4939676;28;20075;-65
2024/02/17 04:14:13;;;;;;;19.00;9.63;;;;;;;-3.16;100.00;100677.47;4971204;28;20429;-66
2024/02/17 04:16:39;;;;;;;17.87;9.10;;;;;;;-3.12;100.00;100673.84;4955293;28;20640;-65
2024/02/17 04:19:05;;;;;;;20.03;10.20;;;;;;;-3.12;100.00;100680.81;4915404;29;20055;-66
2024/02/17 04:21:31;;;;;;;16.17;9.27;;;;;;;-3.14;100.00;100672.22;4935628;29;20093;-66
2024/02/17 04:23:57;;;;;;;23.97;11.63;;;;;;;-3.14;100.00;100670.47;4920207;29;20070;-65
2024/02/17 04:26:23;;;;;;;17.60;9.10;;;;;;;-3.13;100.00;100656.56;4939042;28;20062;-65
2024/02/17 04:28:49;;;;;;;19.27;9.03;;;;;;;-3.19;100.00;100661.97;4955133;28;20050;-66
2024/02/17 04:31:15;;;;;;;15.87;8.83;;;;;;;-3.13;100.00;100653.97;4971180;28;20430;-66
2024/02/17 04:33:41;;;;;;;15.70;8.53;;;;;;;-3.12;100.00;100639.25;4970945;28;20113;-66
2024/02/17 04:36:08;;;;;;;20.43;10.37;;;;;;;-2.99;100.00;100650.94;4954991;28;20398;-66
2024/02/17 04:38:36;;;;;;;13.60;7.83;;;;;;;-3.02;100.00;100649.28;4970264;28;20096;-66
2024/02/17 04:41:02;;;;;;;18.33;8.67;;;;;;;-2.97;100.00;100646.53;4941921;28;20046;-65
2024/02/17 04:43:28;;;;;;;15.83;8.13;;;;;;;-2.98;100.00;100644.88;4973951;28;20145;-66
2024/02/17 04:45:54;;;;;;;14.13;8.40;;;;;;;-2.90;100.00;100646.28;4958510;28;20468;-66
2024/02/17 04:48:20;;;;;;;14.67;7.70;;;;;;;-2.87;100.00;100647.94;4942603;28;20073;-66
2024/02/17 04:50:46;;;;;;;15.80;8.33;;;;;;;-2.91;100.00;100639.41;5006222;28;20167;-66
2024/02/17 04:53:12;;;;;;;18.27;9.00;;;;;;;-2.87;100.00;100646.19;5030705;28;20053;-66
2024/02/17 04:55:40;;;;;;;15.47;8.00;;;;;;;-2.84;100.00;100632.25;4997386;28;20045;-66
2024/02/17 04:58:06;;;;;;;18.47;9.27;;;;;;;-2.83;100.00;100644.34;4994566;28;20049;-66
2024/02/17 05:00:32;;;;;;;17.87;9.37;;;;;;;-2.81;100.00;100648.59;5026480;28;20079;-66
2024/02/17 05:02:58;;;;;;;16.90;8.30;;;;;;;-2.82;100.00;100643.44;5051391;28;20054;-65
2024/02/17 05:05:24;;;;;;;16.97;9.60;;;;;;;-2.82;100.00;100641.72;5018142;28;20041;-66
2024/02/17 05:07:49;;;;;;;17.67;8.60;;;;;;;-2.80;100.00;100634.72;5034477;28;20052;-65
2024/02/17 05:10:15;;;;;;;14.33;7.40;;;;;;;-2.71;100.00;100634.41;5034041;28;20070;-65
2024/02/17 05:12:41;;;;;;;17.17;8.53;;;;;;;-2.70;100.00;100630.03;5017608;28;20055;-66
2024/02/17 05:15:09;;;;;;;12.63;6.87;;;;;;;-2.60;100.00;100626.25;5033490;28;20048;-65
2024/02/17 05:17:36;;;;;;;11.23;6.87;;;;;;;-2.57;100.00;100627.00;5017339;28;20064;-66
2024/02/17 05:20:03;;;;;;;16.10;7.67;;;;;;;-2.48;100.00;100628.41;5051493;28;20053;-67
2024/02/17 05:22:30;;;;;;;12.13;7.67;;;;;;;-2.51;100.00;100615.53;5034377;28;20037;-69
2024/02/17 05:24:56;;;;;;;14.23;7.83;;;;;;;-2.47;100.00;100610.16;5017892;28;20072;-69
2024/02/17 05:27:24;;;;;;;12.20;6.97;;;;;;;-2.49;100.00;100618.94;5034579;28;20053;-66
2024/02/17 05:29:50;;;;;;;14.03;7.87;;;;;;;-2.43;100.00;100610.91;5033752;28;20056;-70
2024/02/17 05:32:15;;;;;;;16.27;8.50;;;;;;;-2.43;100.00;100614.34;5053614;28;20053;-67
2024/02/17 05:34:41;;;;;;;17.17;9.87;;;;;;;-2.44;100.00;100599.66;5004423;28;20045;-65
2024/02/17 05:37:07;;;;;;;15.17;8.60;;;;;;;-2.42;100.00;100591.78;5020791;28;20044;-65
2024/02/17 05:39:33;;;;;;;22.53;11.57;;;;;;;-2.44;100.00;100619.59;5054689;28;20055;-65
2024/02/17 05:41:59;;;;;;;16.97;9.67;;;;;;;-2.38;100.00;100608.97;5053858;28;20132;-65
2024/02/17 05:44:27;;;;;;;16.27;8.93;;;;;;;-2.38;100.00;100615.03;5020852;28;20463;-65
2024/02/17 05:46:53;;;;;;;22.53;11.37;;;;;;;-2.49;100.00;100626.72;5054806;28;20076;-65
2024/02/17 05:49:21;;;;;;;20.83;10.67;;;;;;;-2.53;100.00;100619.91;5020451;28;20083;-64
2024/02/17 05:51:51;;;;;;;18.87;9.97;;;;;;;-2.41;100.00;100625.53;5054383;28;20044;-65
2024/02/17 05:54:18;;;;;;;17.93;9.43;;;;;;;-2.47;100.00;100622.31;5019044;28;20487;-66
2024/02/17 05:56:45;;;;;;;19.97;10.27;;;;;;;-2.45;100.00;100617.91;5035907;28;20052;-64
2024/02/17 05:59:13;;;;;;;21.67;10.93;;;;;;;-2.69;100.00;100614.38;5012806;28;20424;-65
2024/02/17 06:01:38;;;;;;;18.17;9.47;;;;;;;-2.52;100.00;100619.88;4992081;28;20073;-66
2024/02/17 06:04:04;;;;;;;20.10;9.80;;;;;;;-2.49;100.00;100629.31;4970057;28;20073;-70
2024/02/17 06:06:31;;;;;;;20.80;9.67;;;;;;;-2.46;100.00;100618.81;4980169;28;20045;-69
2024/02/17 06:08:57;;;;;;;17.53;9.17;;;;;;;-2.48;100.00;100620.63;4963921;28;20058;-72
2024/02/17 06:11:24;;;;;;;18.80;9.93;;;;;;;-2.44;100.00;100624.78;4964440;28;20107;-69
2024/02/17 06:13:51;;;;;;;15.30;8.93;;;;;;;-2.43;100.00;100606.53;4979781;28;20074;-72
2024/02/17 06:16:18;;;;;;;18.07;9.30;;;;;;;-2.41;100.00;100604.75;4953129;28;20056;-71
2024/02/17 06:21:31;;;;;;;18.73;8.77;;;;;;;-2.31;100.00;100608.72;4987431;28;20138;-70
2024/02/17 06:23:58;;;;;;;20.33;9.23;;;;;;;-2.31;100.00;100600.06;4951121;28;20065;-65
2024/02/17 06:26:27;;;;;;;19.30;9.97;;;;;;;-2.30;100.00;100615.63;5003832;28;20049;-68
2024/02/17 06:28:54;;;;;;;17.60;9.30;;;;;;;-2.41;100.00;100601.28;4991073;28;20428;-69
2024/02/17 06:31:20;;;;;;;19.23;9.37;;;;;;;-2.40;100.00;100590.00;5033855;28;20072;-72
2024/02/17 06:33:49;;;;;;;17.83;9.20;;;;;;;-2.39;100.00;100617.69;5031141;28;20037;-75
2024/02/17 06:36:26;;;;;;;20.63;9.73;;;;;;;-2.46;100.00;100583.25;5029036;28;20482;-74
2024/02/17 06:38:53;;;;;;;19.53;10.27;;;;;;;-2.41;100.00;100590.88;5043567;28;20044;-72
2024/02/17 06:41:19;;;;;;;16.67;10.10;;;;;;;-2.37;100.00;100608.09;5040880;28;20052;-72
2024/02/17 06:43:45;;;;;;;20.23;9.97;;;;;;;-2.43;100.00;100598.72;5026692;28;20486;-72
2024/02/17 06:46:11;;;;;;;17.33;9.17;;;;;;;-2.36;100.00;100586.38;5041247;28;20467;-73
2024/02/17 06:48:38;;;;;;;19.87;10.03;;;;;;;-2.38;100.00;100590.75;5029398;28;20044;-73
2024/02/17 06:51:05;;;;;;;19.33;10.07;;;;;;;-2.32;100.00;100588.81;5033230;28;20053;-73
2024/02/17 06:53:30;;;;;;;16.67;9.07;;;;;;;-2.40;100.00;100572.63;5027408;28;20164;-71
2024/02/17 06:55:56;;;;;;;16.80;9.30;;;;;;;-2.29;100.00;100587.88;5011361;28;20046;-74
2024/02/17 06:58:22;;;;;;;16.60;9.00;;;;;;;-2.27;100.00;100592.09;5026481;28;20060;-73
2024/02/17 07:00:47;;;;;;;16.60;8.90;;;;;;;-2.24;100.00;100578.13;5015512;28;20041;-70
2024/02/17 07:03:14;;;;;;;20.97;10.07;;;;;;;-2.18;100.00;100573.53;5011116;28;20114;-74
2024/02/17 07:05:40;;;;;;;16.30;8.97;;;;;;;-2.12;100.00;100575.94;5041043;28;20041;-73
2024/02/17 07:08:08;;;;;;;15.13;8.50;;;;;;;-2.07;100.00;100570.53;5044348;28;20048;-73
2024/02/17 07:10:35;;;;;;;18.23;9.63;;;;;;;-2.03;100.00;100575.56;5043670;28;20067;-72
2024/02/17 07:13:03;;;;;;;16.57;8.83;;;;;;;-2.01;100.00;100570.31;5010423;28;20049;-71
2024/02/17 07:15:29;;;;;;;16.93;8.90;;;;;;;-1.97;100.00;100551.09;5031355;28;20131;-72
2024/02/17 07:17:55;;;;;;;16.97;8.67;;;;;;;-1.91;100.00;100550.88;5010618;28;20045;-72
2024/02/17 07:20:21;;;;;;;18.13;8.87;;;;;;;-1.84;100.00;100566.19;5040629;28;20064;-71
2024/02/17 07:22:46;;;;;;;15.93;8.83;;;;;;;-1.77;100.00;100556.41;5026705;28;20037;-71
2024/02/17 07:25:12;;;;;;;15.17;8.10;;;;;;;-1.57;100.00;100556.47;5026113;28;20064;-71
2024/02/17 07:27:39;;;;;;;15.27;8.33;;;;;;;-1.49;100.00;100546.56;5010281;28;20044;-72
2024/02/17 07:30:05;;;;;;;15.57;8.03;;;;;;;-1.41;100.00;100539.31;5007727;28;20136;-70
2024/02/17 07:32:31;;;;;;;15.30;7.87;;;;;;;-1.28;100.00;100545.75;5042413;28;20080;-70
2024/02/17 07:34:57;;;;;;;11.93;7.73;;;;;;;-1.18;100.00;100546.19;5045667;28;20076;-70
2024/02/17 07:37:22;;;;;;;14.63;7.83;;;;;;;-1.11;100.00;100540.69;5052988;28;20052;-70
2024/02/17 07:39:48;;;;;;;15.70;8.70;;;;;;;-1.07;100.00;100529.22;5052587;28;20065;-71
2024/02/17 07:42:13;;;;;;;17.57;7.80;;;;;;;-0.96;100.00;100540.03;5052637;28;20052;-73
2024/02/17 07:44:45;;;;;;;16.37;7.97;;;;;;;-0.89;100.00;100517.19;5011010;28;20033;-74
2024/02/17 07:47:11;;;;;;;14.30;7.37;;;;;;;-0.83;100.00;100503.88;5040234;28;20041;-72
2024/02/17 07:49:37;;;;;;;15.40;8.37;;;;;;;-0.76;100.00;100510.50;5000394;28;20110;-73
2024/02/17 07:52:03;;;;;;;13.00;7.30;;;;;;;-0.67;100.00;100512.72;5023736;28;20053;-74
2024/02/17 07:54:28;;;;;;;15.77;7.43;;;;;;;-0.59;100.00;100503.66;5042262;28;20128;-73
2024/02/17 07:56:54;;;;;;;16.63;7.97;;;;;;;-0.50;100.00;100491.94;5016592;28;20044;-73
2024/02/17 07:59:20;;;;;;;15.23;9.20;;;;;;;-0.42;100.00;100523.78;5038545;28;20041;-72
2024/02/17 08:01:45;;;;;;;17.57;9.03;;;;;;;-0.29;100.00;100485.75;5040872;28;20041;-71
2024/02/17 08:04:11;;;;;;;16.27;8.03;;;;;;;-0.17;100.00;100485.22;5029917;28;20053;-71
2024/02/17 08:06:37;;;;;;;11.13;7.17;;;;;;;0.00;100.00;100488.72;5013307;28;20467;-72
2024/02/17 08:09:03;;;;;;;13.63;7.00;;;;;;;0.17;100.00;100503.59;5015170;28;20401;-72
2024/02/17 08:11:29;;;;;;;14.17;7.17;;;;;;;0.34;100.00;100489.75;5032639;28;20068;-72
2024/02/17 08:13:54;;;;;;;13.67;7.13;;;;;;;0.44;100.00;100477.94;4998979;28;20437;-72
2024/02/17 08:16:22;;;;;;;10.57;5.83;;;;;;;0.57;100.00;100476.44;5015347;28;20056;-73
2024/02/17 08:18:47;;;;;;;12.03;6.90;;;;;;;0.58;100.00;100459.81;4998326;28;20045;-72
2024/02/17 08:21:13;;;;;;;14.03;7.33;;;;;;;0.63;100.00;100468.28;5014838;28;20052;-73
2024/02/17 08:23:42;;;;;;;15.40;8.30;;;;;;;0.69;100.00;100481.06;5014708;28;20041;-72
2024/02/17 08:26:10;;;;;;;16.53;8.40;;;;;;;0.59;100.00;100458.88;5014580;28;20049;-73
2024/02/17 08:28:37;;;;;;;13.43;7.57;;;;;;;0.58;100.00;100465.91;5030744;28;20061;-72
2024/02/17 08:31:03;;;;;;;16.23;8.27;;;;;;;0.61;100.00;100457.06;4998322;28;20391;-72
2024/02/17 08:33:29;;;;;;;14.73;8.17;;;;;;;0.55;100.00;100458.22;4998933;28;20045;-72
2024/02/17 08:35:54;;;;;;;15.80;8.40;;;;;;;0.57;100.00;100465.97;5031473;28;20071;-71
2024/02/17 08:38:20;;;;;;;16.17;9.60;;;;;;;0.56;100.00;100453.81;5031682;28;20060;-72
2024/02/17 08:40:46;;;;;;;15.67;8.97;;;;;;;0.68;100.00;100453.19;5014802;28;20050;-73
2024/02/17 08:43:11;;;;;;;15.50;8.53;;;;;;;0.92;100.00;100439.72;5014727;28;20550;-73
2024/02/17 08:45:37;;;;;;;14.03;8.17;;;;;;;1.34;100.00;100452.38;5032041;28;20380;-72
2024/02/17 08:48:03;;;;;;;12.93;7.97;;;;;;;1.78;100.00;100422.06;5031431;28;20045;-70
2024/02/17 08:50:29;;;;;;;10.70;6.73;;;;;;;2.25;100.00;100424.63;5015278;28;20046;-73
2024/02/17 08:52:55;;;;;;;10.27;6.93;;;;;;;2.62;100.00;100425.06;5030998;28;20136;-71
2024/02/17 08:55:22;;;;;;;9.27;6.60;;;;;;;2.96;100.00;100421.31;5015386;28;20084;-73
2024/02/17 08:57:48;;;;;;;9.18;6.28;;;;;;;3.22;100.00;100408.31;5014814;28;20053;-71
2024/02/17 09:00:14;;;;;;;10.38;7.40;;;;;;;3.51;100.00;100408.31;4997790;28;20106;-71
2024/02/17 09:02:40;;;;;;;8.55;6.15;;;;;;;3.67;100.00;100403.78;5030243;28;20095;-72
2024/02/17 09:05:06;;;;;;;10.10;7.45;;;;;;;3.83;100.00;100409.78;5019432;28;20048;-73
2024/02/17 09:07:33;;;;;;;11.77;7.47;;;;;;;3.98;100.00;100407.03;5040267;28;20053;-73
2024/02/17 09:09:59;;;;;;;10.93;7.80;;;;;;;4.08;100.00;100405.47;5040073;28;20080;-73
2024/02/17 09:12:27;;;;;;;13.05;8.45;;;;;;;4.20;100.00;100393.31;5019117;28;20619;-74
2024/02/17 09:14:56;;;;;;;13.27;8.23;;;;;;;4.47;100.00;100392.38;5004309;28;20036;-70
2024/02/17 09:17:24;;;;;;;13.23;8.07;;;;;;;4.74;100.00;100390.53;5023162;28;20066;-70
2024/02/17 09:19:52;;;;;;;14.23;9.40;;;;;;;4.92;100.00;100394.53;5040126;28;20048;-70
2024/02/17 09:22:17;;;;;;;11.50;8.23;;;;;;;5.08;100.00;100403.09;5056208;28;20065;-72
2024/02/17 09:24:48;;;;;;;11.77;8.48;;;;;;;5.39;100.00;100393.06;5039446;28;20044;-71
2024/02/17 09:27:15;;;;;;;10.98;8.63;;;;;;;5.40;100.00;100398.22;5039655;28;20055;-70
2024/02/17 09:29:47;;;;;;;10.68;8.93;;;;;;;5.69;100.00;100394.38;5040620;28;20060;-70
2024/02/17 09:32:14;;;;;;;11.55;9.18;;;;;;;5.95;100.00;100395.19;5024049;28;20060;-72
2024/02/17 09:34:41;;;;;;;14.95;9.07;;;;;;;6.31;100.00;100390.72;5023036;28;20040;-71
2024/02/17 09:37:09;;;;;;;12.73;9.43;;;;;;;6.58;100.00;100385.19;5039423;28;20048;-68
2024/02/17 09:39:36;;;;;;;11.10;9.55;;;;;;;6.91;100.00;100398.47;5039599;28;20067;-80
2024/02/17 09:42:03;;;;;;;11.50;10.00;;;;;;;7.19;100.00;100376.94;5016230;28;20045;-71
2024/02/17 09:44:28;;;;;;;12.68;10.70;;;;;;;7.35;100.00;100390.63;5000008;28;20232;-69
2024/02/17 09:46:54;;;;;;;13.00;10.82;;;;;;;7.48;100.00;100361.44;5032259;28;20148;-70
2024/02/17 09:49:25;;;;;;;16.55;10.90;;;;;;;7.66;100.00;100371.38;4999840;28;20049;-72
2024/02/17 09:51:52;;;;;;;14.50;11.60;;;;;;;7.77;100.00;100357.31;5016258;28;20080;-76
2024/02/17 09:54:21;;;;;;;13.93;11.75;;;;;;;7.94;100.00;100373.53;5032633;28;20057;-72
2024/02/17 09:56:50;;;;;;;12.82;11.52;;;;;;;8.02;100.00;100352.59;5032014;28;20396;-72
2024/02/17 09:59:16;;;;;;;13.93;11.73;;;;;;;8.26;100.00;100349.75;5015271;28;20048;-75
2024/02/17 10:01:42;;;;;;;13.75;11.48;;;;;;;8.40;100.00;100358.25;5032043;28;20087;-75
2024/02/17 10:04:08;;;;;;;13.20;11.80;;;;;;;8.41;100.00;100351.16;4975144;28;20046;-78
2024/02/17 10:06:34;;;;;;;13.93;11.95;;;;;;;8.24;100.00;100352.53;5032084;28;20044;-74
2024/02/17 10:09:00;;;;;;;13.25;11.50;;;;;;;8.16;100.00;100351.47;5032857;28;20136;-77
2024/02/17 10:11:27;;;;;;;13.55;11.82;;;;;;;7.93;100.00;100363.88;4999930;28;20060;-77
2024/02/17 10:14:04;;;;;;;15.35;13.20;;;;;;;8.11;100.00;100332.47;5002595;28;20054;-75
2024/02/17 10:16:31;;;;;;;15.18;13.73;;;;;;;7.95;100.00;100346.09;5035361;28;20478;-73
2024/02/17 10:19:07;;;;;;;15.23;13.63;;;;;;;8.00;100.00;100306.03;5037889;28;20056;-73
2024/02/17 10:21:38;;;;;;;15.57;14.05;;;;;;;8.46;100.00;100309.25;5036989;28;20040;-72
2024/02/17 10:24:03;;;;;;;13.55;11.98;;;;;;;8.41;100.00;100314.09;5053838;28;20056;-68
2024/02/17 10:26:29;;;;;;;14.55;13.25;;;;;;;8.42;100.00;100291.94;5053239;28;20041;-75
2024/02/17 10:28:58;;;;;;;15.75;14.35;;;;;;;8.46;100.00;100288.06;5053493;28;20041;-79
2024/02/17 10:31:28;;;;;;;16.90;15.23;;;;;;;8.70;100.00;100290.47;5056432;28;20055;-75
2024/02/17 10:33:54;;;;;;;17.35;15.57;;;;;;;9.07;100.00;100281.03;5020519;28;20426;-77
2024/02/17 10:36:22;;;;;;;16.15;11.30;;;;;;;8.85;100.00;100303.25;5036667;28;20048;-79
2024/02/17 10:38:48;;;;;;;20.23;15.52;;;;;;;8.90;100.00;100284.31;5020771;28;20122;-79
2024/02/17 10:41:14;;;;;;;15.05;12.98;;;;;;;8.65;100.00;100259.06;5037148;28;20134;-78
2024/02/17 10:43:44;;;;;;;15.07;13.50;;;;;;;8.50;100.00;100252.44;5036816;28;20483;-78
2024/02/17 10:46:18;;;;;;;14.52;13.02;;;;;;;8.76;100.00;100272.25;5020295;28;20126;-78
2024/02/17 10:48:54;;;;;;;18.75;16.77;;;;;;;8.97;100.00;100264.25;5036700;28;20083;-78
2024/02/17 10:51:23;;;;;;;15.95;14.43;;;;;;;8.86;100.00;100274.91;5054602;28;20045;-78
2024/02/17 10:53:55;;;;;;;16.80;15.02;;;;;;;8.87;100.00;100247.47;5032478;28;20069;-73
2024/02/17 10:56:22;;;;;;;14.40;12.50;;;;;;;8.33;100.00;100256.50;4995431;28;20060;-80
2024/02/17 10:58:49;;;;;;;17.40;15.65;;;;;;;7.85;100.00;100281.69;4984946;28;20083;-71
2024/02/17 11:01:26;;;;;;;11.27;10.07;;;;;;;7.70;100.00;100223.94;5016281;28;20069;-72
2024/02/17 11:03:53;;;;;;;10.13;7.65;;;;;;;6.21;100.00;100267.53;4994897;28;20060;-73
2024/02/17 11:06:22;;;;;;;12.05;7.18;;;;;;;5.41;100.00;100225.22;4977566;28;20124;-74
2024/02/17 11:08:50;;;;;;;12.88;7.10;;;;;;;4.58;100.00;100255.69;4978605;28;20054;-76